sensor_id;sensor_type;location;lat;lon;timestamp;temperature;humidity
16814;DHT22;8524;57.650;11.926;2023-05-10T00:01:50;10.40;99.90
16814;DHT22;8524;57.650;11.926;2023-05-10T00:04:19;10.40;99.90
16814;DHT22;8524;57.650;11.926;2023-05-10T00:06:47;10.40;99.90
16814;DHT22;8524;57.650;11.926;2023-05-10T00:09:14;10.30;99.90
16814;DHT22;8524;57.650;11.926;2023-05-10T00:11:41;10.40;99.90
16814;DHT22;8524;57.650;11.926;2023-05-10T00:14:08;10.30;99.90
16814;DHT22;8524;57.650;11.926;2023-05-10T00:16:35;10.30;99.90
16814;DHT22;8524;57.650;11.926;2023-05-10T00:19:02;10.20;99.90
16814;DHT22;8524;57.650;11.926;2023-05-10T00:21:30;10.30;99.90
16814;DHT22;8524;57.650;11.926;2023-05-10T00:23:59;10.20;99.90
16814;DHT22;8524;57.650;11.926;2023-05-10T00:26:26;10.20;99.90
16814;DHT22;8524;57.650;11.926;2023-05-10T00:28:53;10.10;99.90
16814;DHT22;8524;57.650;11.926;2023-05-10T00:31:20;10.10;99.90
16814;DHT22;8524;57.650;11.926;2023-05-10T00:33:47;10.00;99.90
16814;DHT22;8524;57.650;11.926;2023-05-10T00:36:14;10.00;99.90
16814;DHT22;8524;57.650;11.926;2023-05-10T00:38:42;10.00;99.90
16814;DHT22;8524;57.650;11.926;2023-05-10T00:41:09;10.00;99.90
16814;DHT22;8524;57.650;11.926;2023-05-10T00:43:36;10.00;99.90
16814;DHT22;8524;57.650;11.926;2023-05-10T00:46:04;10.00;99.90
16814;DHT22;8524;57.650;11.926;2023-05-10T00:48:31;9.90;99.90
16814;DHT22;8524;57.650;11.926;2023-05-10T00:50:58;9.80;99.90
16814;DHT22;8524;57.650;11.926;2023-05-10T00:53:25;9.90;99.90
16814;DHT22;8524;57.650;11.926;2023-05-10T00:55:54;9.90;99.90
16814;DHT22;8524;57.650;11.926;2023-05-10T00:58:22;9.90;99.90
16814;DHT22;8524;57.650;11.926;2023-05-10T01:00:49;9.80;99.90
16814;DHT22;8524;57.650;11.926;2023-05-10T01:03:17;9.80;99.90
16814;DHT22;8524;57.650;11.926;2023-05-10T01:05:45;9.80;99.90
16814;DHT22;8524;57.650;11.926;2023-05-10T01:08:12;9.70;99.90
16814;DHT22;8524;57.650;11.926;2023-05-10T01:10:39;9.70;99.90
16814;DHT22;8524;57.650;11.926;2023-05-10T01:13:07;9.60;99.90
16814;DHT22;8524;57.650;11.926;2023-05-10T01:15:34;9.70;99.90
16814;DHT22;8524;57.650;11.926;2023-05-10T01:18:03;9.70;99.90
16814;DHT22;8524;57.650;11.926;2023-05-10T01:20:41;9.70;99.90
16814;DHT22;8524;57.650;11.926;2023-05-10T01:23:33;9.70;99.90
16814;DHT22;8524;57.650;11.926;2023-05-10T01:26:29;9.70;99.90
16814;DHT22;8524;57.650;11.926;2023-05-10T01:32:20;9.70;99.90
16814;DHT22;8524;57.650;11.926;2023-05-10T01:34:54;9.70;99.90
16814;DHT22;8524;57.650;11.926;2023-05-10T01:37:31;9.70;99.90
16814;DHT22;8524;57.650;11.926;2023-05-10T01:40:05;9.70;99.90
16814;DHT22;8524;57.650;11.926;2023-05-10T01:42:41;9.60;99.90
16814;DHT22;8524;57.650;11.926;2023-05-10T01:45:16;9.60;99.90
16814;DHT22;8524;57.650;11.926;2023-05-10T01:47:49;9.60;99.90
16814;DHT22;8524;57.650;11.926;2023-05-10T01:50:19;9.60;99.90
16814;DHT22;8524;57.650;11.926;2023-05-10T01:52:53;9.60;99.90
16814;DHT22;8524;57.650;11.926;2023-05-10T01:55:22;9.60;99.90
16814;DHT22;8524;57.650;11.926;2023-05-10T01:57:55;9.60;99.90
16814;DHT22;8524;57.650;11.926;2023-05-10T02:00:24;9.50;99.90
16814;DHT22;8524;57.650;11.926;2023-05-10T02:02:54;9.50;99.90
16814;DHT22;8524;57.650;11.926;2023-05-10T02:05:23;9.40;99.90
16814;DHT22;8524;57.650;11.926;2023-05-10T02:07:51;9.40;99.90
16814;DHT22;8524;57.650;11.926;2023-05-10T02:10:19;9.40;99.90
16814;DHT22;8524;57.650;11.926;2023-05-10T02:12:48;9.40;99.90
16814;DHT22;8524;57.650;11.926;2023-05-10T02:15:18;9.30;99.90
16814;DHT22;8524;57.650;11.926;2023-05-10T02:17:46;9.30;99.90
16814;DHT22;8524;57.650;11.926;2023-05-10T02:20:16;9.30;99.90
16814;DHT22;8524;57.650;11.926;2023-05-10T02:22:45;9.30;99.90
16814;DHT22;8524;57.650;11.926;2023-05-10T02:25:14;9.20;99.90
16814;DHT22;8524;57.650;11.926;2023-05-10T02:27:42;9.30;99.90
16814;DHT22;8524;57.650;11.926;2023-05-10T02:30:11;9.20;99.90
16814;DHT22;8524;57.650;11.926;2023-05-10T02:32:40;9.30;99.90
16814;DHT22;8524;57.650;11.926;2023-05-10T02:35:08;9.40;99.90
16814;DHT22;8524;57.650;11.926;2023-05-10T02:37:38;9.30;99.90
16814;DHT22;8524;57.650;11.926;2023-05-10T02:40:07;9.30;99.90
16814;DHT22;8524;57.650;11.926;2023-05-10T02:42:37;9.30;99.90
16814;DHT22;8524;57.650;11.926;2023-05-10T02:45:08;9.30;99.90
16814;DHT22;8524;57.650;11.926;2023-05-10T02:47:37;9.30;99.90
16814;DHT22;8524;57.650;11.926;2023-05-10T02:50:05;9.40;99.90
16814;DHT22;8524;57.650;11.926;2023-05-10T02:52:40;9.50;99.90
16814;DHT22;8524;57.650;11.926;2023-05-10T02:55:11;9.50;99.90
16814;DHT22;8524;57.650;11.926;2023-05-10T02:57:43;9.40;99.90
16814;DHT22;8524;57.650;11.926;2023-05-10T03:00:13;9.40;99.90
16814;DHT22;8524;57.650;11.926;2023-05-10T03:02:41;9.50;99.90
16814;DHT22;8524;57.650;11.926;2023-05-10T03:05:08;9.40;99.90
16814;DHT22;8524;57.650;11.926;2023-05-10T03:07:35;9.40;99.90
16814;DHT22;8524;57.650;11.926;2023-05-10T03:10:05;9.40;99.90
16814;DHT22;8524;57.650;11.926;2023-05-10T03:12:46;9.40;99.90
16814;DHT22;8524;57.650;11.926;2023-05-10T03:15:24;9.40;99.90
16814;DHT22;8524;57.650;11.926;2023-05-10T03:18:00;9.50;99.90
16814;DHT22;8524;57.650;11.926;2023-05-10T03:20:31;9.50;99.90
16814;DHT22;8524;57.650;11.926;2023-05-10T03:23:04;9.50;99.90
16814;DHT22;8524;57.650;11.926;2023-05-10T03:25:35;9.50;99.90
16814;DHT22;8524;57.650;11.926;2023-05-10T03:28:04;9.50;99.90
16814;DHT22;8524;57.650;11.926;2023-05-10T03:30:32;9.60;99.90
16814;DHT22;8524;57.650;11.926;2023-05-10T03:33:04;9.60;99.90
16814;DHT22;8524;57.650;11.926;2023-05-10T03:35:32;9.60;99.90
16814;DHT22;8524;57.650;11.926;2023-05-10T03:37:59;9.70;99.90
16814;DHT22;8524;57.650;11.926;2023-05-10T03:40:26;9.70;99.90
16814;DHT22;8524;57.650;11.926;2023-05-10T03:42:58;9.70;99.90
16814;DHT22;8524;57.650;11.926;2023-05-10T03:45:25;9.70;99.90
16814;DHT22;8524;57.650;11.926;2023-05-10T03:47:52;9.70;99.90
16814;DHT22;8524;57.650;11.926;2023-05-10T03:50:19;9.70;99.90
16814;DHT22;8524;57.650;11.926;2023-05-10T03:52:47;9.80;99.90
16814;DHT22;8524;57.650;11.926;2023-05-10T03:55:14;9.80;99.90
16814;DHT22;8524;57.650;11.926;2023-05-10T03:57:41;9.90;99.90
16814;DHT22;8524;57.650;11.926;2023-05-10T04:00:11;9.90;99.90
16814;DHT22;8524;57.650;11.926;2023-05-10T04:02:38;10.00;99.90
16814;DHT22;8524;57.650;11.926;2023-05-10T04:05:05;10.10;99.90
16814;DHT22;8524;57.650;11.926;2023-05-10T04:07:33;10.20;99.90
16814;DHT22;8524;57.650;11.926;2023-05-10T04:10:00;10.30;99.90
16814;DHT22;8524;57.650;11.926;2023-05-10T04:12:27;10.40;99.90
16814;DHT22;8524;57.650;11.926;2023-05-10T04:14:54;10.60;99.90
16814;DHT22;8524;57.650;11.926;2023-05-10T04:17:22;10.60;99.90
16814;DHT22;8524;57.650;11.926;2023-05-10T04:19:49;10.80;99.90
16814;DHT22;8524;57.650;11.926;2023-05-10T04:22:18;10.90;99.90
16814;DHT22;8524;57.650;11.926;2023-05-10T04:24:45;11.00;99.90
16814;DHT22;8524;57.650;11.926;2023-05-10T04:27:12;11.00;99.90
16814;DHT22;8524;57.650;11.926;2023-05-10T04:29:40;11.10;99.90
16814;DHT22;8524;57.650;11.926;2023-05-10T04:32:07;11.20;99.90
16814;DHT22;8524;57.650;11.926;2023-05-10T04:34:37;11.30;99.90
16814;DHT22;8524;57.650;11.926;2023-05-10T04:37:04;11.30;99.90
16814;DHT22;8524;57.650;11.926;2023-05-10T04:39:31;11.30;99.90
16814;DHT22;8524;57.650;11.926;2023-05-10T04:41:58;11.30;99.90
16814;DHT22;8524;57.650;11.926;2023-05-10T04:44:25;11.40;99.90
16814;DHT22;8524;57.650;11.926;2023-05-10T04:46:52;11.50;99.90
16814;DHT22;8524;57.650;11.926;2023-05-10T04:49:19;11.60;99.90
16814;DHT22;8524;57.650;11.926;2023-05-10T04:51:47;11.70;99.90
16814;DHT22;8524;57.650;11.926;2023-05-10T04:54:14;11.80;99.90
16814;DHT22;8524;57.650;11.926;2023-05-10T04:56:41;12.00;99.90
16814;DHT22;8524;57.650;11.926;2023-05-10T04:59:08;12.00;99.90
16814;DHT22;8524;57.650;11.926;2023-05-10T05:01:36;12.10;99.90
16814;DHT22;8524;57.650;11.926;2023-05-10T05:04:03;12.20;99.90
16814;DHT22;8524;57.650;11.926;2023-05-10T05:06:30;12.20;99.90
16814;DHT22;8524;57.650;11.926;2023-05-10T05:08:58;12.30;99.90
16814;DHT22;8524;57.650;11.926;2023-05-10T05:11:25;12.40;99.90
16814;DHT22;8524;57.650;11.926;2023-05-10T05:13:52;12.50;99.90
16814;DHT22;8524;57.650;11.926;2023-05-10T05:16:19;12.50;99.90
16814;DHT22;8524;57.650;11.926;2023-05-10T05:18:47;12.60;99.90
16814;DHT22;8524;57.650;11.926;2023-05-10T05:21:14;12.60;99.90
16814;DHT22;8524;57.650;11.926;2023-05-10T05:23:42;12.70;99.90
16814;DHT22;8524;57.650;11.926;2023-05-10T05:26:10;12.80;99.90
16814;DHT22;8524;57.650;11.926;2023-05-10T05:28:38;12.90;99.90
16814;DHT22;8524;57.650;11.926;2023-05-10T05:31:05;13.00;99.90
16814;DHT22;8524;57.650;11.926;2023-05-10T05:33:33;13.10;99.90
16814;DHT22;8524;57.650;11.926;2023-05-10T05:36:00;13.20;99.90
16814;DHT22;8524;57.650;11.926;2023-05-10T05:38:27;13.30;99.90
16814;DHT22;8524;57.650;11.926;2023-05-10T05:40:54;13.30;99.90
16814;DHT22;8524;57.650;11.926;2023-05-10T05:43:23;13.50;99.90
16814;DHT22;8524;57.650;11.926;2023-05-10T05:45:52;13.50;99.90
16814;DHT22;8524;57.650;11.926;2023-05-10T05:48:19;13.70;99.90
16814;DHT22;8524;57.650;11.926;2023-05-10T05:50:46;14.00;99.90
16814;DHT22;8524;57.650;11.926;2023-05-10T05:53:13;14.20;99.90
16814;DHT22;8524;57.650;11.926;2023-05-10T05:55:51;14.30;99.90
16814;DHT22;8524;57.650;11.926;2023-05-10T05:58:18;14.40;99.90
16814;DHT22;8524;57.650;11.926;2023-05-10T06:00:47;14.40;99.90
16814;DHT22;8524;57.650;11.926;2023-05-10T06:03:14;14.70;99.90
16814;DHT22;8524;57.650;11.926;2023-05-10T06:05:41;14.90;99.90
16814;DHT22;8524;57.650;11.926;2023-05-10T06:08:08;15.00;99.90
16814;DHT22;8524;57.650;11.926;2023-05-10T06:10:35;15.30;99.90
16814;DHT22;8524;57.650;11.926;2023-05-10T06:13:02;15.40;99.40
16814;DHT22;8524;57.650;11.926;2023-05-10T06:15:29;15.40;98.80
16814;DHT22;8524;57.650;11.926;2023-05-10T06:17:59;15.60;98.60
16814;DHT22;8524;57.650;11.926;2023-05-10T06:20:26;15.70;99.90
16814;DHT22;8524;57.650;11.926;2023-05-10T06:22:53;16.10;98.80
16814;DHT22;8524;57.650;11.926;2023-05-10T06:25:21;16.10;99.90
16814;DHT22;8524;57.650;11.926;2023-05-10T06:27:48;16.40;98.10
16814;DHT22;8524;57.650;11.926;2023-05-10T06:30:15;16.20;96.80
16814;DHT22;8524;57.650;11.926;2023-05-10T06:32:42;16.50;96.80
16814;DHT22;8524;57.650;11.926;2023-05-10T06:35:12;16.50;96.50
16814;DHT22;8524;57.650;11.926;2023-05-10T06:37:39;16.50;96.10
16814;DHT22;8524;57.650;11.926;2023-05-10T06:40:07;16.60;95.90
16814;DHT22;8524;57.650;11.926;2023-05-10T06:42:34;16.90;96.10
16814;DHT22;8524;57.650;11.926;2023-05-10T06:45:02;16.70;96.90
16814;DHT22;8524;57.650;11.926;2023-05-10T06:47:29;16.90;95.80
16814;DHT22;8524;57.650;11.926;2023-05-10T06:49:56;16.90;95.70
16814;DHT22;8524;57.650;11.926;2023-05-10T06:52:24;17.00;95.80
16814;DHT22;8524;57.650;11.926;2023-05-10T06:54:51;17.00;96.10
16814;DHT22;8524;57.650;11.926;2023-05-10T06:57:18;17.50;96.30
16814;DHT22;8524;57.650;11.926;2023-05-10T06:59:46;16.80;94.70
16814;DHT22;8524;57.650;11.926;2023-05-10T07:02:13;17.10;95.80
16814;DHT22;8524;57.650;11.926;2023-05-10T07:04:40;17.20;95.10
16814;DHT22;8524;57.650;11.926;2023-05-10T07:07:07;17.30;95.20
16814;DHT22;8524;57.650;11.926;2023-05-10T07:09:36;17.40;94.60
16814;DHT22;8524;57.650;11.926;2023-05-10T07:12:04;17.40;96.30
16814;DHT22;8524;57.650;11.926;2023-05-10T07:14:31;17.60;94.00
16814;DHT22;8524;57.650;11.926;2023-05-10T07:16:58;17.70;94.10
16814;DHT22;8524;57.650;11.926;2023-05-10T07:19:25;17.70;95.40
16814;DHT22;8524;57.650;11.926;2023-05-10T07:21:52;18.10;93.30
16814;DHT22;8524;57.650;11.926;2023-05-10T07:24:20;18.40;94.00
16814;DHT22;8524;57.650;11.926;2023-05-10T07:26:48;18.10;92.30
16814;DHT22;8524;57.650;11.926;2023-05-10T07:29:15;17.80;92.20
16814;DHT22;8524;57.650;11.926;2023-05-10T07:31:42;18.10;92.40
16814;DHT22;8524;57.650;11.926;2023-05-10T07:34:09;18.30;93.30
16814;DHT22;8524;57.650;11.926;2023-05-10T07:36:36;18.60;92.50
16814;DHT22;8524;57.650;11.926;2023-05-10T07:39:04;18.60;92.40
16814;DHT22;8524;57.650;11.926;2023-05-10T07:41:31;18.60;92.00
16814;DHT22;8524;57.650;11.926;2023-05-10T07:43:59;18.70;91.80
16814;DHT22;8524;57.650;11.926;2023-05-10T07:46:26;18.60;91.20
16814;DHT22;8524;57.650;11.926;2023-05-10T07:48:54;18.90;92.70
16814;DHT22;8524;57.650;11.926;2023-05-10T07:51:21;19.00;91.40
16814;DHT22;8524;57.650;11.926;2023-05-10T07:53:48;19.00;91.10
16814;DHT22;8524;57.650;11.926;2023-05-10T07:56:23;19.30;90.90
16814;DHT22;8524;57.650;11.926;2023-05-10T07:58:50;19.60;90.50
16814;DHT22;8524;57.650;11.926;2023-05-10T08:01:20;19.80;89.60
16814;DHT22;8524;57.650;11.926;2023-05-10T08:03:47;19.60;88.70
16814;DHT22;8524;57.650;11.926;2023-05-10T08:06:14;19.60;87.90
16814;DHT22;8524;57.650;11.926;2023-05-10T08:08:41;19.50;89.50
16814;DHT22;8524;57.650;11.926;2023-05-10T08:11:08;19.60;87.70
16814;DHT22;8524;57.650;11.926;2023-05-10T08:13:35;19.90;89.80
16814;DHT22;8524;57.650;11.926;2023-05-10T08:16:02;20.10;86.50
16814;DHT22;8524;57.650;11.926;2023-05-10T08:18:31;19.90;83.20
16814;DHT22;8524;57.650;11.926;2023-05-10T08:20:58;20.00;86.00
16814;DHT22;8524;57.650;11.926;2023-05-10T08:23:25;20.10;84.20
16814;DHT22;8524;57.650;11.926;2023-05-10T08:25:52;20.10;81.50
16814;DHT22;8524;57.650;11.926;2023-05-10T08:28:19;20.00;79.20
16814;DHT22;8524;57.650;11.926;2023-05-10T08:30:46;20.00;81.10
16814;DHT22;8524;57.650;11.926;2023-05-10T08:33:13;20.20;81.20
16814;DHT22;8524;57.650;11.926;2023-05-10T08:35:41;20.40;80.10
16814;DHT22;8524;57.650;11.926;2023-05-10T08:38:08;20.50;81.90
16814;DHT22;8524;57.650;11.926;2023-05-10T08:40:37;20.70;80.90
16814;DHT22;8524;57.650;11.926;2023-05-10T08:43:05;20.80;82.10
16814;DHT22;8524;57.650;11.926;2023-05-10T08:45:33;20.50;78.50
16814;DHT22;8524;57.650;11.926;2023-05-10T08:48:05;20.40;76.90
16814;DHT22;8524;57.650;11.926;2023-05-10T08:50:36;20.30;77.30
16814;DHT22;8524;57.650;11.926;2023-05-10T08:53:06;20.60;80.10
16814;DHT22;8524;57.650;11.926;2023-05-10T08:55:36;20.70;80.10
16814;DHT22;8524;57.650;11.926;2023-05-10T08:58:04;21.00;79.00
16814;DHT22;8524;57.650;11.926;2023-05-10T09:00:31;21.20;77.30
16814;DHT22;8524;57.650;11.926;2023-05-10T09:02:59;21.20;74.10
16814;DHT22;8524;57.650;11.926;2023-05-10T09:05:27;21.20;74.10
16814;DHT22;8524;57.650;11.926;2023-05-10T09:07:54;21.20;74.30
16814;DHT22;8524;57.650;11.926;2023-05-10T09:10:25;21.00;77.20
16814;DHT22;8524;57.650;11.926;2023-05-10T09:12:53;21.00;78.30
16814;DHT22;8524;57.650;11.926;2023-05-10T09:15:22;21.20;75.40
16814;DHT22;8524;57.650;11.926;2023-05-10T09:17:50;21.50;72.10
16814;DHT22;8524;57.650;11.926;2023-05-10T09:20:17;21.20;74.40
16814;DHT22;8524;57.650;11.926;2023-05-10T09:22:44;21.50;77.30
16814;DHT22;8524;57.650;11.926;2023-05-10T09:25:13;21.20;75.40
16814;DHT22;8524;57.650;11.926;2023-05-10T09:27:46;21.40;77.00
16814;DHT22;8524;57.650;11.926;2023-05-10T09:30:16;21.80;72.10
16814;DHT22;8524;57.650;11.926;2023-05-10T09:32:44;21.70;74.40
16814;DHT22;8524;57.650;11.926;2023-05-10T09:35:13;21.70;72.30
16814;DHT22;8524;57.650;11.926;2023-05-10T09:37:41;21.80;66.90
16814;DHT22;8524;57.650;11.926;2023-05-10T09:40:12;21.80;68.80
16814;DHT22;8524;57.650;11.926;2023-05-10T09:42:42;21.90;72.00
16814;DHT22;8524;57.650;11.926;2023-05-10T09:45:10;22.00;67.20
16814;DHT22;8524;57.650;11.926;2023-05-10T09:47:37;22.00;68.60
16814;DHT22;8524;57.650;11.926;2023-05-10T09:50:05;22.00;75.70
16814;DHT22;8524;57.650;11.926;2023-05-10T09:52:46;22.20;68.80
16814;DHT22;8524;57.650;11.926;2023-05-10T09:55:13;22.20;67.60
16814;DHT22;8524;57.650;11.926;2023-05-10T09:57:42;22.40;65.90
16814;DHT22;8524;57.650;11.926;2023-05-10T10:00:10;22.40;64.90
16814;DHT22;8524;57.650;11.926;2023-05-10T10:02:38;22.50;63.10
16814;DHT22;8524;57.650;11.926;2023-05-10T10:05:07;22.40;66.50
16814;DHT22;8524;57.650;11.926;2023-05-10T10:07:34;22.30;70.90
16814;DHT22;8524;57.650;11.926;2023-05-10T10:10:02;22.30;64.80
16814;DHT22;8524;57.650;11.926;2023-05-10T10:12:30;22.50;65.50
16814;DHT22;8524;57.650;11.926;2023-05-10T10:15:00;22.40;64.40
16814;DHT22;8524;57.650;11.926;2023-05-10T10:17:27;22.30;66.50
16814;DHT22;8524;57.650;11.926;2023-05-10T10:19:55;22.40;64.70
16814;DHT22;8524;57.650;11.926;2023-05-10T10:22:23;22.10;61.90
16814;DHT22;8524;57.650;11.926;2023-05-10T10:24:51;22.30;68.80
16814;DHT22;8524;57.650;11.926;2023-05-10T10:27:23;22.50;61.80
16814;DHT22;8524;57.650;11.926;2023-05-10T10:30:03;22.40;60.70
16814;DHT22;8524;57.650;11.926;2023-05-10T10:32:49;22.70;64.90
16814;DHT22;8524;57.650;11.926;2023-05-10T10:35:22;22.60;61.40
16814;DHT22;8524;57.650;11.926;2023-05-10T10:37:50;22.70;57.30
16814;DHT22;8524;57.650;11.926;2023-05-10T10:40:26;22.60;54.70
16814;DHT22;8524;57.650;11.926;2023-05-10T10:42:53;22.70;61.30
16814;DHT22;8524;57.650;11.926;2023-05-10T10:45:23;22.60;56.40
16814;DHT22;8524;57.650;11.926;2023-05-10T10:48:20;22.50;58.90
16814;DHT22;8524;57.650;11.926;2023-05-10T10:50:51;22.50;57.60
16814;DHT22;8524;57.650;11.926;2023-05-10T10:53:22;22.40;54.40
16814;DHT22;8524;57.650;11.926;2023-05-10T10:55:49;22.40;55.20
16814;DHT22;8524;57.650;11.926;2023-05-10T10:58:29;22.40;53.60
16814;DHT22;8524;57.650;11.926;2023-05-10T11:01:11;22.60;56.20
16814;DHT22;8524;57.650;11.926;2023-05-10T11:03:39;22.70;52.30
16814;DHT22;8524;57.650;11.926;2023-05-10T11:06:06;22.80;53.00
16814;DHT22;8524;57.650;11.926;2023-05-10T11:08:41;22.40;51.40
16814;DHT22;8524;57.650;11.926;2023-05-10T11:11:09;22.70;57.70
16814;DHT22;8524;57.650;11.926;2023-05-10T11:13:40;22.90;55.40
16814;DHT22;8524;57.650;11.926;2023-05-10T11:16:19;23.20;57.60
16814;DHT22;8524;57.650;11.926;2023-05-10T11:18:54;23.20;50.80
16814;DHT22;8524;57.650;11.926;2023-05-10T11:21:22;22.90;56.10
16814;DHT22;8524;57.650;11.926;2023-05-10T11:23:50;23.10;61.00
16814;DHT22;8524;57.650;11.926;2023-05-10T11:26:18;23.10;61.30
16814;DHT22;8524;57.650;11.926;2023-05-10T11:28:49;23.10;55.00
16814;DHT22;8524;57.650;11.926;2023-05-10T11:31:18;23.40;49.80
16814;DHT22;8524;57.650;11.926;2023-05-10T11:33:47;23.50;47.70
16814;DHT22;8524;57.650;11.926;2023-05-10T11:36:15;23.60;52.50
16814;DHT22;8524;57.650;11.926;2023-05-10T11:38:42;23.40;60.90
16814;DHT22;8524;57.650;11.926;2023-05-10T11:41:10;22.80;59.60
16814;DHT22;8524;57.650;11.926;2023-05-10T11:43:39;22.90;63.70
16814;DHT22;8524;57.650;11.926;2023-05-10T11:46:07;22.80;55.30
16814;DHT22;8524;57.650;11.926;2023-05-10T11:48:36;22.70;60.40
16814;DHT22;8524;57.650;11.926;2023-05-10T11:51:03;23.00;50.00
16814;DHT22;8524;57.650;11.926;2023-05-10T11:53:33;23.40;57.30
16814;DHT22;8524;57.650;11.926;2023-05-10T11:56:04;23.60;41.70
16814;DHT22;8524;57.650;11.926;2023-05-10T11:58:31;23.70;50.20
16814;DHT22;8524;57.650;11.926;2023-05-10T12:00:58;23.60;41.60
16814;DHT22;8524;57.650;11.926;2023-05-10T12:03:26;23.80;44.80
16814;DHT22;8524;57.650;11.926;2023-05-10T12:05:55;24.00;40.20
16814;DHT22;8524;57.650;11.926;2023-05-10T12:08:24;24.00;38.10
16814;DHT22;8524;57.650;11.926;2023-05-10T12:10:53;24.00;32.50
16814;DHT22;8524;57.650;11.926;2023-05-10T12:13:20;23.70;34.90
16814;DHT22;8524;57.650;11.926;2023-05-10T12:15:48;24.10;39.70
16814;DHT22;8524;57.650;11.926;2023-05-10T12:18:21;24.20;32.90
16814;DHT22;8524;57.650;11.926;2023-05-10T12:20:53;23.90;33.50
16814;DHT22;8524;57.650;11.926;2023-05-10T12:23:20;24.10;28.10
16814;DHT22;8524;57.650;11.926;2023-05-10T12:25:47;24.10;24.90
16814;DHT22;8524;57.650;11.926;2023-05-10T12:28:14;24.10;27.00
16814;DHT22;8524;57.650;11.926;2023-05-10T12:30:41;24.20;23.40
16814;DHT22;8524;57.650;11.926;2023-05-10T12:33:10;23.90;29.90
16814;DHT22;8524;57.650;11.926;2023-05-10T12:35:45;23.80;25.10
16814;DHT22;8524;57.650;11.926;2023-05-10T12:38:27;23.90;17.10
16814;DHT22;8524;57.650;11.926;2023-05-10T12:40:57;23.70;20.20
16814;DHT22;8524;57.650;11.926;2023-05-10T12:43:24;23.50;22.60
16814;DHT22;8524;57.650;11.926;2023-05-10T12:46:06;23.70;20.10
16814;DHT22;8524;57.650;11.926;2023-05-10T12:48:37;23.80;22.00
16814;DHT22;8524;57.650;11.926;2023-05-10T12:51:16;23.80;17.50
16814;DHT22;8524;57.650;11.926;2023-05-10T12:53:49;23.60;20.10
16814;DHT22;8524;57.650;11.926;2023-05-10T12:56:22;24.20;22.10
16814;DHT22;8524;57.650;11.926;2023-05-10T12:58:49;23.80;43.30
16814;DHT22;8524;57.650;11.926;2023-05-10T13:01:18;22.90;52.50
16814;DHT22;8524;57.650;11.926;2023-05-10T13:03:44;23.20;52.10
16814;DHT22;8524;57.650;11.926;2023-05-10T13:06:12;22.90;54.00
16814;DHT22;8524;57.650;11.926;2023-05-10T13:08:40;23.10;51.60
16814;DHT22;8524;57.650;11.926;2023-05-10T13:11:07;23.20;54.80
16814;DHT22;8524;57.650;11.926;2023-05-10T13:13:34;23.40;54.20
16814;DHT22;8524;57.650;11.926;2023-05-10T13:16:02;23.00;55.50
16814;DHT22;8524;57.650;11.926;2023-05-10T13:18:31;22.80;58.50
16814;DHT22;8524;57.650;11.926;2023-05-10T13:20:58;22.40;59.90
16814;DHT22;8524;57.650;11.926;2023-05-10T13:23:25;22.10;65.30
16814;DHT22;8524;57.650;11.926;2023-05-10T13:25:52;21.70;71.70
16814;DHT22;8524;57.650;11.926;2023-05-10T13:28:19;21.80;70.10
16814;DHT22;8524;57.650;11.926;2023-05-10T13:30:47;21.70;68.30
16814;DHT22;8524;57.650;11.926;2023-05-10T13:33:14;22.00;64.90
16814;DHT22;8524;57.650;11.926;2023-05-10T13:35:43;22.30;63.70
16814;DHT22;8524;57.650;11.926;2023-05-10T13:38:11;22.40;65.50
16814;DHT22;8524;57.650;11.926;2023-05-10T13:40:39;22.30;66.10
16814;DHT22;8524;57.650;11.926;2023-05-10T13:43:06;22.60;60.70
16814;DHT22;8524;57.650;11.926;2023-05-10T13:45:33;22.80;59.00
16814;DHT22;8524;57.650;11.926;2023-05-10T13:48:00;22.30;67.40
16814;DHT22;8524;57.650;11.926;2023-05-10T13:50:27;22.90;56.50
16814;DHT22;8524;57.650;11.926;2023-05-10T13:52:56;23.20;33.20
16814;DHT22;8524;57.650;11.926;2023-05-10T13:55:23;23.10;34.60
16814;DHT22;8524;57.650;11.926;2023-05-10T13:57:50;23.50;40.40
16814;DHT22;8524;57.650;11.926;2023-05-10T14:00:17;23.50;36.10
16814;DHT22;8524;57.650;11.926;2023-05-10T14:02:44;23.20;31.00
16814;DHT22;8524;57.650;11.926;2023-05-10T14:05:15;23.40;22.40
16814;DHT22;8524;57.650;11.926;2023-05-10T14:07:42;23.50;21.80
16814;DHT22;8524;57.650;11.926;2023-05-10T14:10:18;23.60;24.10
16814;DHT22;8524;57.650;11.926;2023-05-10T14:12:45;23.80;22.30
16814;DHT22;8524;57.650;11.926;2023-05-10T14:15:12;23.80;18.30
16814;DHT22;8524;57.650;11.926;2023-05-10T14:17:39;23.80;18.70
16814;DHT22;8524;57.650;11.926;2023-05-10T14:20:07;23.60;14.50
16814;DHT22;8524;57.650;11.926;2023-05-10T14:22:34;24.00;19.40
16814;DHT22;8524;57.650;11.926;2023-05-10T14:25:02;23.80;17.90
16814;DHT22;8524;57.650;11.926;2023-05-10T14:27:31;23.70;12.80
16814;DHT22;8524;57.650;11.926;2023-05-10T14:29:58;23.40;20.90
16814;DHT22;8524;57.650;11.926;2023-05-10T14:32:25;23.50;30.00
16814;DHT22;8524;57.650;11.926;2023-05-10T14:34:53;23.30;34.40
16814;DHT22;8524;57.650;11.926;2023-05-10T14:37:21;23.00;39.90
16814;DHT22;8524;57.650;11.926;2023-05-10T14:39:48;22.90;40.40
16814;DHT22;8524;57.650;11.926;2023-05-10T14:42:15;22.80;45.20
16814;DHT22;8524;57.650;11.926;2023-05-10T14:44:43;23.10;44.60
16814;DHT22;8524;57.650;11.926;2023-05-10T14:47:10;22.80;47.50
16814;DHT22;8524;57.650;11.926;2023-05-10T14:49:37;22.60;47.80
16814;DHT22;8524;57.650;11.926;2023-05-10T14:52:04;22.10;50.30
16814;DHT22;8524;57.650;11.926;2023-05-10T14:54:31;21.80;51.90
16814;DHT22;8524;57.650;11.926;2023-05-10T14:56:59;21.40;56.00
16814;DHT22;8524;57.650;11.926;2023-05-10T14:59:26;21.10;60.80
16814;DHT22;8524;57.650;11.926;2023-05-10T15:01:54;21.00;64.60
16814;DHT22;8524;57.650;11.926;2023-05-10T15:04:21;20.90;62.80
16814;DHT22;8524;57.650;11.926;2023-05-10T15:06:48;20.80;65.20
16814;DHT22;8524;57.650;11.926;2023-05-10T15:09:15;20.80;67.50
16814;DHT22;8524;57.650;11.926;2023-05-10T15:11:42;20.90;68.70
16814;DHT22;8524;57.650;11.926;2023-05-10T15:14:10;20.80;70.40
16814;DHT22;8524;57.650;11.926;2023-05-10T15:16:37;20.60;71.10
16814;DHT22;8524;57.650;11.926;2023-05-10T15:19:05;20.40;72.80
16814;DHT22;8524;57.650;11.926;2023-05-10T15:21:32;20.70;72.00
16814;DHT22;8524;57.650;11.926;2023-05-10T15:24:04;21.00;62.70
16814;DHT22;8524;57.650;11.926;2023-05-10T15:26:31;21.10;67.20
16814;DHT22;8524;57.650;11.926;2023-05-10T15:28:58;21.00;65.20
16814;DHT22;8524;57.650;11.926;2023-05-10T15:31:25;20.90;66.20
16814;DHT22;8524;57.650;11.926;2023-05-10T15:33:57;20.80;64.80
16814;DHT22;8524;57.650;11.926;2023-05-10T15:36:26;20.60;67.10
16814;DHT22;8524;57.650;11.926;2023-05-10T15:38:53;20.30;68.80
16814;DHT22;8524;57.650;11.926;2023-05-10T15:41:20;20.40;65.60
16814;DHT22;8524;57.650;11.926;2023-05-10T15:43:47;20.10;66.50
16814;DHT22;8524;57.650;11.926;2023-05-10T15:46:14;20.10;68.20
16814;DHT22;8524;57.650;11.926;2023-05-10T15:48:41;20.10;69.20